sensor_id;sensor_type;location;lat;lon;timestamp;pressure;altitude;pressure_sealevel;temperature;humidity
42289;BME280;30230;47.520;19.016;2023-03-23T00:00:00;98930.47;;;8.83;71.75
42289;BME280;30230;47.520;19.016;2023-03-23T00:02:01;98936.50;;;8.79;71.91
42289;BME280;30230;47.520;19.016;2023-03-23T00:04:01;98926.13;;;8.76;72.13
42289;BME280;30230;47.520;19.016;2023-03-23T00:06:02;98938.97;;;8.74;72.00
42289;BME280;30230;47.520;19.016;2023-03-23T00:08:04;98933.38;;;8.75;71.93
42289;BME280;30230;47.520;19.016;2023-03-23T00:10:05;98940.16;;;8.71;71.59
42289;BME280;30230;47.520;19.016;2023-03-23T00:12:07;98926.91;;;8.70;71.43
42289;BME280;30230;47.520;19.016;2023-03-23T00:14:09;98922.56;;;8.69;71.91
42289;BME280;30230;47.520;19.016;2023-03-23T00:16:13;98925.41;;;8.60;72.21
42289;BME280;30230;47.520;19.016;2023-03-23T00:18:18;98922.53;;;8.62;72.12
42289;BME280;30230;47.520;19.016;2023-03-23T00:20:22;98924.00;;;8.65;72.79
42289;BME280;30230;47.520;19.016;2023-03-23T00:22:24;98928.72;;;8.63;72.80
42289;BME280;30230;47.520;19.016;2023-03-23T00:24:25;98924.38;;;8.61;72.74
42289;BME280;30230;47.520;19.016;2023-03-23T00:26:25;98928.09;;;8.60;72.68
42289;BME280;30230;47.520;19.016;2023-03-23T00:28:29;98925.41;;;8.60;72.43
42289;BME280;30230;47.520;19.016;2023-03-23T00:30:29;98931.81;;;8.53;72.91
42289;BME280;30230;47.520;19.016;2023-03-23T00:32:30;98908.19;;;8.48;72.55
42289;BME280;30230;47.520;19.016;2023-03-23T00:34:30;98917.72;;;8.57;72.29
42289;BME280;30230;47.520;19.016;2023-03-23T00:36:34;98922.34;;;8.64;72.32
42289;BME280;30230;47.520;19.016;2023-03-23T00:38:36;98918.56;;;8.58;72.86
42289;BME280;30230;47.520;19.016;2023-03-23T00:40:36;98923.28;;;8.49;72.90
42289;BME280;30230;47.520;19.016;2023-03-23T00:42:37;98930.94;;;8.52;72.95
42289;BME280;30230;47.520;19.016;2023-03-23T00:44:38;98922.50;;;8.55;72.66
42289;BME280;30230;47.520;19.016;2023-03-23T00:46:39;98924.84;;;8.72;70.11
42289;BME280;30230;47.520;19.016;2023-03-23T00:48:48;98920.72;;;8.69;71.06
42289;BME280;30230;47.520;19.016;2023-03-23T00:50:51;98912.56;;;8.63;72.38
42289;BME280;30230;47.520;19.016;2023-03-23T00:52:52;98914.81;;;8.52;72.87
42289;BME280;30230;47.520;19.016;2023-03-23T00:54:55;98912.72;;;8.48;73.12
42289;BME280;30230;47.520;19.016;2023-03-23T00:56:55;98911.88;;;8.47;72.53
42289;BME280;30230;47.520;19.016;2023-03-23T00:58:56;98911.25;;;8.45;72.46
42289;BME280;30230;47.520;19.016;2023-03-23T01:00:56;98906.06;;;8.44;72.49
42289;BME280;30230;47.520;19.016;2023-03-23T01:02:57;98908.56;;;8.45;72.24
42289;BME280;30230;47.520;19.016;2023-03-23T01:04:57;98902.72;;;8.42;72.06
42289;BME280;30230;47.520;19.016;2023-03-23T01:06:58;98902.50;;;8.37;72.29
42289;BME280;30230;47.520;19.016;2023-03-23T01:09:02;98894.81;;;8.33;73.51
42289;BME280;30230;47.520;19.016;2023-03-23T01:11:04;98911.13;;;8.32;72.37
42289;BME280;30230;47.520;19.016;2023-03-23T01:13:05;98901.41;;;8.31;72.45
42289;BME280;30230;47.520;19.016;2023-03-23T01:15:06;98911.34;;;8.30;72.73
42289;BME280;30230;47.520;19.016;2023-03-23T01:17:07;98908.84;;;8.29;73.44
42289;BME280;30230;47.520;19.016;2023-03-23T01:19:08;98900.56;;;8.30;73.31
42289;BME280;30230;47.520;19.016;2023-03-23T01:21:11;98904.91;;;8.31;73.40
42289;BME280;30230;47.520;19.016;2023-03-23T01:23:15;98897.06;;;8.30;72.45
42289;BME280;30230;47.520;19.016;2023-03-23T01:25:15;98903.25;;;8.30;72.44
42289;BME280;30230;47.520;19.016;2023-03-23T01:27:16;98894.56;;;8.28;72.29
42289;BME280;30230;47.520;19.016;2023-03-23T01:29:16;98890.59;;;8.24;72.90
42289;BME280;30230;47.520;19.016;2023-03-23T01:31:22;98887.28;;;8.22;73.32
42289;BME280;30230;47.520;19.016;2023-03-23T01:33:23;98901.56;;;8.23;73.89
42289;BME280;30230;47.520;19.016;2023-03-23T01:35:23;98896.56;;;8.20;73.60
42289;BME280;30230;47.520;19.016;2023-03-23T01:37:24;98898.19;;;8.14;72.88
42289;BME280;30230;47.520;19.016;2023-03-23T01:39:26;98894.31;;;8.17;73.66
42289;BME280;30230;47.520;19.016;2023-03-23T01:41:26;98897.16;;;8.15;73.36
42289;BME280;30230;47.520;19.016;2023-03-23T01:43:27;98895.91;;;8.11;73.04
42289;BME280;30230;47.520;19.016;2023-03-23T01:45:34;98895.50;;;8.14;73.37
42289;BME280;30230;47.520;19.016;2023-03-23T01:47:35;98889.28;;;8.07;73.29
42289;BME280;30230;47.520;19.016;2023-03-23T01:49:38;98892.13;;;8.05;73.46
42289;BME280;30230;47.520;19.016;2023-03-23T01:51:50;98884.47;;;8.02;74.25
42289;BME280;30230;47.520;19.016;2023-03-23T01:53:56;98885.50;;;8.01;73.82
42289;BME280;30230;47.520;19.016;2023-03-23T01:55:58;98881.13;;;8.00;74.59
42289;BME280;30230;47.520;19.016;2023-03-23T01:58:00;98881.72;;;7.96;75.20
42289;BME280;30230;47.520;19.016;2023-03-23T02:00:04;98881.31;;;7.92;75.63
42289;BME280;30230;47.520;19.016;2023-03-23T02:02:14;98877.72;;;7.85;75.33
42289;BME280;30230;47.520;19.016;2023-03-23T02:04:16;98884.13;;;7.84;76.02
42289;BME280;30230;47.520;19.016;2023-03-23T02:06:17;98887.63;;;7.84;76.84
42289;BME280;30230;47.520;19.016;2023-03-23T02:08:18;98890.75;;;7.81;76.90
42289;BME280;30230;47.520;19.016;2023-03-23T02:10:18;98888.88;;;7.82;76.06
42289;BME280;30230;47.520;19.016;2023-03-23T02:12:19;98889.91;;;7.81;75.66
42289;BME280;30230;47.520;19.016;2023-03-23T02:14:20;98884.91;;;7.78;76.51
42289;BME280;30230;47.520;19.016;2023-03-23T02:21:19;98890.03;;;7.73;77.17
42289;BME280;30230;47.520;19.016;2023-03-23T02:30:23;98896.56;;;7.64;77.41
42289;BME280;30230;47.520;19.016;2023-03-23T02:32:44;98893.00;;;7.56;78.62
42289;BME280;30230;47.520;19.016;2023-03-23T02:34:51;98902.09;;;7.55;78.71
42289;BME280;30230;47.520;19.016;2023-03-23T02:37:01;98898.97;;;7.52;78.45
42289;BME280;30230;47.520;19.016;2023-03-23T02:39:10;98903.88;;;7.48;78.21
42289;BME280;30230;47.520;19.016;2023-03-23T02:41:13;98895.38;;;7.45;78.12
42289;BME280;30230;47.520;19.016;2023-03-23T02:43:16;98893.69;;;7.44;78.53
42289;BME280;30230;47.520;19.016;2023-03-23T02:45:20;98901.97;;;7.42;78.38
42289;BME280;30230;47.520;19.016;2023-03-23T02:47:25;98890.59;;;7.40;77.90
42289;BME280;30230;47.520;19.016;2023-03-23T02:49:29;98901.59;;;7.45;78.84
42289;BME280;30230;47.520;19.016;2023-03-23T02:51:33;98903.63;;;7.43;78.80
42289;BME280;30230;47.520;19.016;2023-03-23T02:53:37;98890.13;;;7.37;79.16
42289;BME280;30230;47.520;19.016;2023-03-23T02:55:41;98900.50;;;7.40;79.47
42289;BME280;30230;47.520;19.016;2023-03-23T02:57:42;98905.06;;;7.39;79.37
42289;BME280;30230;47.520;19.016;2023-03-23T02:59:45;98897.38;;;7.36;79.50
42289;BME280;30230;47.520;19.016;2023-03-23T03:01:50;98892.09;;;7.28;80.48
42289;BME280;30230;47.520;19.016;2023-03-23T03:03:54;98900.56;;;7.25;80.59
42289;BME280;30230;47.520;19.016;2023-03-23T03:06:38;98895.31;;;7.17;79.73
42289;BME280;30230;47.520;19.016;2023-03-23T03:08:52;98892.03;;;7.21;80.32
42289;BME280;30230;47.520;19.016;2023-03-23T03:10:58;98902.16;;;7.19;80.40
42289;BME280;30230;47.520;19.016;2023-03-23T03:15:21;98892.63;;;7.17;81.39
42289;BME280;30230;47.520;19.016;2023-03-23T03:17:25;98900.03;;;7.15;81.17
42289;BME280;30230;47.520;19.016;2023-03-23T03:19:29;98906.31;;;7.22;80.41
42289;BME280;30230;47.520;19.016;2023-03-23T03:21:35;98896.78;;;7.19;80.62
42289;BME280;30230;47.520;19.016;2023-03-23T03:23:38;98903.09;;;7.12;80.44
42289;BME280;30230;47.520;19.016;2023-03-23T03:25:43;98897.31;;;7.08;80.81
42289;BME280;30230;47.520;19.016;2023-03-23T03:27:48;98907.19;;;7.08;81.42
42289;BME280;30230;47.520;19.016;2023-03-23T03:29:56;98905.19;;;6.95;81.68
42289;BME280;30230;47.520;19.016;2023-03-23T03:32:01;98908.72;;;6.95;81.46
42289;BME280;30230;47.520;19.016;2023-03-23T03:34:06;98923.16;;;6.94;82.50
42289;BME280;30230;47.520;19.016;2023-03-23T03:36:07;98910.75;;;6.93;82.34
42289;BME280;30230;47.520;19.016;2023-03-23T03:38:14;98914.84;;;6.89;82.29
42289;BME280;30230;47.520;19.016;2023-03-23T03:40:16;98914.19;;;6.87;82.04
42289;BME280;30230;47.520;19.016;2023-03-23T03:42:17;98917.53;;;6.89;82.20
42289;BME280;30230;47.520;19.016;2023-03-23T03:44:17;98910.03;;;6.85;81.95
42289;BME280;30230;47.520;19.016;2023-03-23T03:46:18;98913.75;;;6.84;82.86
42289;BME280;30230;47.520;19.016;2023-03-23T03:48:18;98909.56;;;6.81;82.64
42289;BME280;30230;47.520;19.016;2023-03-23T03:50:18;98915.50;;;6.76;82.89
42289;BME280;30230;47.520;19.016;2023-03-23T03:52:19;98915.69;;;6.75;82.56
42289;BME280;30230;47.520;19.016;2023-03-23T03:54:20;98908.00;;;6.72;82.89
42289;BME280;30230;47.520;19.016;2023-03-23T03:56:20;98919.00;;;6.77;83.28
42289;BME280;30230;47.520;19.016;2023-03-23T03:58:22;98920.59;;;6.71;83.22
42289;BME280;30230;47.520;19.016;2023-03-23T04:00:22;98925.59;;;6.74;83.28
42289;BME280;30230;47.520;19.016;2023-03-23T04:02:23;98917.34;;;6.76;83.45
42289;BME280;30230;47.520;19.016;2023-03-23T04:04:24;98932.69;;;6.82;83.04
42289;BME280;30230;47.520;19.016;2023-03-23T04:06:24;98932.69;;;6.82;82.89
42289;BME280;30230;47.520;19.016;2023-03-23T04:08:28;98924.00;;;6.80;83.27
42289;BME280;30230;47.520;19.016;2023-03-23T04:10:30;98930.59;;;6.77;84.18
42289;BME280;30230;47.520;19.016;2023-03-23T04:12:31;98932.81;;;6.74;83.91
42289;BME280;30230;47.520;19.016;2023-03-23T04:14:31;98929.31;;;6.73;83.99
42289;BME280;30230;47.520;19.016;2023-03-23T04:16:32;98931.53;;;6.70;83.77
42289;BME280;30230;47.520;19.016;2023-03-23T04:18:34;98940.97;;;6.66;84.08
42289;BME280;30230;47.520;19.016;2023-03-23T04:20:35;98942.00;;;6.65;83.77
42289;BME280;30230;47.520;19.016;2023-03-23T04:22:37;98937.84;;;6.62;84.28
42289;BME280;30230;47.520;19.016;2023-03-23T04:24:37;98938.56;;;6.56;84.62
42289;BME280;30230;47.520;19.016;2023-03-23T04:26:38;98933.59;;;6.53;84.08
42289;BME280;30230;47.520;19.016;2023-03-23T04:28:40;98934.34;;;6.47;84.98
42289;BME280;30230;47.520;19.016;2023-03-23T04:30:41;98914.88;;;6.30;85.17
42289;BME280;30230;47.520;19.016;2023-03-23T04:32:43;98937.84;;;6.47;84.94
42289;BME280;30230;47.520;19.016;2023-03-23T04:34:43;98931.53;;;6.40;85.35
42289;BME280;30230;47.520;19.016;2023-03-23T04:36:44;98941.28;;;6.41;85.43
42289;BME280;30230;47.520;19.016;2023-03-23T04:38:48;98933.59;;;6.38;85.07
42289;BME280;30230;47.520;19.016;2023-03-23T04:40:52;98935.16;;;6.33;84.96
42289;BME280;30230;47.520;19.016;2023-03-23T04:42:52;98921.28;;;6.29;85.31
42289;BME280;30230;47.520;19.016;2023-03-23T04:44:58;98939.50;;;6.34;85.87
42289;BME280;30230;47.520;19.016;2023-03-23T04:47:01;98930.97;;;6.30;84.88
42289;BME280;30230;47.520;19.016;2023-03-23T04:49:01;98930.16;;;6.30;86.23
42289;BME280;30230;47.520;19.016;2023-03-23T04:51:02;98941.06;;;6.28;86.44
42289;BME280;30230;47.520;19.016;2023-03-23T04:53:04;98932.81;;;6.30;86.54
42289;BME280;30230;47.520;19.016;2023-03-23T04:55:06;98932.94;;;6.36;86.53
42289;BME280;30230;47.520;19.016;2023-03-23T04:57:07;98937.84;;;6.33;87.03
42289;BME280;30230;47.520;19.016;2023-03-23T04:59:08;98935.16;;;6.33;87.21
42289;BME280;30230;47.520;19.016;2023-03-23T05:01:09;98940.81;;;6.38;87.18
42289;BME280;30230;47.520;19.016;2023-03-23T05:03:10;98934.59;;;6.37;86.97
42289;BME280;30230;47.520;19.016;2023-03-23T05:05:17;98947.00;;;6.38;87.17
42289;BME280;30230;47.520;19.016;2023-03-23T05:07:20;98940.88;;;6.44;86.99
42289;BME280;30230;47.520;19.016;2023-03-23T05:09:20;98943.84;;;6.49;86.87
42289;BME280;30230;47.520;19.016;2023-03-23T05:11:21;98944.03;;;6.48;87.34
42289;BME280;30230;47.520;19.016;2023-03-23T05:13:22;98948.94;;;6.44;86.92
42289;BME280;30230;47.520;19.016;2023-03-23T05:15:22;98945.91;;;6.47;87.27
42289;BME280;30230;47.520;19.016;2023-03-23T05:17:23;98936.53;;;6.43;87.00
42289;BME280;30230;47.520;19.016;2023-03-23T05:19:24;98945.69;;;6.49;86.81
42289;BME280;30230;47.520;19.016;2023-03-23T05:21:24;98947.56;;;6.48;87.89
42289;BME280;30230;47.520;19.016;2023-03-23T05:23:26;98948.66;;;6.54;87.86
42289;BME280;30230;47.520;19.016;2023-03-23T05:25:26;98943.94;;;6.56;87.57
42289;BME280;30230;47.520;19.016;2023-03-23T05:27:27;98950.78;;;6.59;87.53
42289;BME280;30230;47.520;19.016;2023-03-23T05:29:28;98939.03;;;6.60;87.69
42289;BME280;30230;47.520;19.016;2023-03-23T05:31:30;98937.44;;;6.65;87.88
42289;BME280;30230;47.520;19.016;2023-03-23T05:33:30;98941.25;;;6.71;87.60
42289;BME280;30230;47.520;19.016;2023-03-23T05:35:31;98938.81;;;6.76;87.96
42289;BME280;30230;47.520;19.016;2023-03-23T05:37:31;98923.38;;;6.78;87.51
42289;BME280;30230;47.520;19.016;2023-03-23T05:39:32;98923.66;;;6.83;87.85
42289;BME280;30230;47.520;19.016;2023-03-23T05:41:32;98923.91;;;6.88;87.16
42289;BME280;30230;47.520;19.016;2023-03-23T05:43:33;98929.56;;;6.93;86.57
42289;BME280;30230;47.520;19.016;2023-03-23T05:45:34;98922.19;;;7.02;86.59
42289;BME280;30230;47.520;19.016;2023-03-23T05:47:35;98918.94;;;7.07;86.05
42289;BME280;30230;47.520;19.016;2023-03-23T05:49:36;98923.56;;;7.13;85.84
42289;BME280;30230;47.520;19.016;2023-03-23T05:51:38;98923.25;;;7.22;85.19
42289;BME280;30230;47.520;19.016;2023-03-23T05:53:38;98924.59;;;7.33;84.73
42289;BME280;30230;47.520;19.016;2023-03-23T05:55:39;98930.44;;;7.37;84.65
42289;BME280;30230;47.520;19.016;2023-03-23T05:57:39;98910.84;;;7.43;83.59
42289;BME280;30230;47.520;19.016;2023-03-23T05:59:40;98925.88;;;7.58;82.32
42289;BME280;30230;47.520;19.016;2023-03-23T06:01:40;98920.97;;;7.62;81.36
42289;BME280;30230;47.520;19.016;2023-03-23T06:03:41;98929.66;;;7.64;80.48
42289;BME280;30230;47.520;19.016;2023-03-23T06:05:45;98918.78;;;7.72;79.68
42289;BME280;30230;47.520;19.016;2023-03-23T06:07:45;98923.00;;;7.81;77.38
42289;BME280;30230;47.520;19.016;2023-03-23T06:09:49;98918.88;;;7.86;77.35
42289;BME280;30230;47.520;19.016;2023-03-23T06:11:50;98930.56;;;7.99;77.47
42289;BME280;30230;47.520;19.016;2023-03-23T06:13:52;98927.88;;;7.99;78.64
42289;BME280;30230;47.520;19.016;2023-03-23T06:15:56;98929.41;;;8.08;77.87
42289;BME280;30230;47.520;19.016;2023-03-23T06:17:58;98928.41;;;8.16;77.62
42289;BME280;30230;47.520;19.016;2023-03-23T06:19:59;98920.56;;;8.15;77.60
42289;BME280;30230;47.520;19.016;2023-03-23T06:21:59;98916.66;;;8.17;77.49
42289;BME280;30230;47.520;19.016;2023-03-23T06:24:01;98913.56;;;8.20;77.03
42289;BME280;30230;47.520;19.016;2023-03-23T06:26:04;98929.59;;;8.35;76.44
42289;BME280;30230;47.520;19.016;2023-03-23T06:28:05;98927.16;;;8.40;76.25
42289;BME280;30230;47.520;19.016;2023-03-23T06:30:07;98921.81;;;8.47;76.03
42289;BME280;30230;47.520;19.016;2023-03-23T06:32:10;98920.84;;;8.54;75.90
42289;BME280;30230;47.520;19.016;2023-03-23T06:34:11;98899.31;;;8.54;75.41
42289;BME280;30230;47.520;19.016;2023-03-23T06:36:12;98921.56;;;8.83;73.97
42289;BME280;30230;47.520;19.016;2023-03-23T06:38:12;98914.97;;;8.85;73.92
42289;BME280;30230;47.520;19.016;2023-03-23T06:40:13;98925.75;;;8.92;73.79
42289;BME280;30230;47.520;19.016;2023-03-23T06:42:13;98922.47;;;8.97;73.45
42289;BME280;30230;47.520;19.016;2023-03-23T06:44:14;98927.03;;;9.03;73.73
42289;BME280;30230;47.520;19.016;2023-03-23T06:46:14;98923.34;;;9.10;72.46
42289;BME280;30230;47.520;19.016;2023-03-23T06:48:15;98919.19;;;9.14;72.49
42289;BME280;30230;47.520;19.016;2023-03-23T06:50:16;98927.94;;;9.30;72.03
42289;BME280;30230;47.520;19.016;2023-03-23T06:52:17;98930.28;;;9.46;70.37
42289;BME280;30230;47.520;19.016;2023-03-23T06:54:17;98934.25;;;9.57;70.38
42289;BME280;30230;47.520;19.016;2023-03-23T06:56:18;98939.63;;;9.63;69.92
42289;BME280;30230;47.520;19.016;2023-03-23T06:58:18;98937.16;;;9.69;69.80
42289;BME280;30230;47.520;19.016;2023-03-23T07:00:19;98940.06;;;9.74;69.93
42289;BME280;30230;47.520;19.016;2023-03-23T07:02:19;98937.78;;;9.84;68.46
42289;BME280;30230;47.520;19.016;2023-03-23T07:04:20;98935.50;;;9.94;67.42
42289;BME280;30230;47.520;19.016;2023-03-23T07:06:20;98940.28;;;10.05;67.40
42289;BME280;30230;47.520;19.016;2023-03-23T07:08:21;98935.91;;;10.11;67.20
42289;BME280;30230;47.520;19.016;2023-03-23T07:10:21;98941.28;;;10.17;67.12
42289;BME280;30230;47.520;19.016;2023-03-23T07:12:22;98933.41;;;10.23;67.10
42289;BME280;30230;47.520;19.016;2023-03-23T07:14:22;98943.56;;;10.47;74.57
42289;BME280;30230;47.520;19.016;2023-03-23T07:16:23;98944.78;;;10.71;69.87
42289;BME280;30230;47.520;19.016;2023-03-23T07:18:24;98941.81;;;10.79;67.51
42289;BME280;30230;47.520;19.016;2023-03-23T07:20:24;98935.81;;;10.77;66.16
42289;BME280;30230;47.520;19.016;2023-03-23T07:22:25;98955.09;;;10.94;65.38
42289;BME280;30230;47.520;19.016;2023-03-23T07:24:25;98944.22;;;11.07;65.62
42289;BME280;30230;47.520;19.016;2023-03-23T07:26:26;98948.69;;;11.33;63.17
42289;BME280;30230;47.520;19.016;2023-03-23T07:28:26;98956.34;;;11.68;61.95
42289;BME280;30230;47.520;19.016;2023-03-23T07:30:32;98952.41;;;12.02;63.56
42289;BME280;30230;47.520;19.016;2023-03-23T07:32:33;98952.09;;;12.35;67.11
42289;BME280;30230;47.520;19.016;2023-03-23T07:34:33;98955.19;;;12.82;70.14
42289;BME280;30230;47.520;19.016;2023-03-23T07:36:33;98950.38;;;13.02;61.07
42289;BME280;30230;47.520;19.016;2023-03-23T07:38:37;98959.69;;;13.25;54.89
42289;BME280;30230;47.520;19.016;2023-03-23T07:40:38;98956.16;;;13.24;56.21
42289;BME280;30230;47.520;19.016;2023-03-23T07:42:39;98963.25;;;13.25;54.91
42289;BME280;30230;47.520;19.016;2023-03-23T07:44:39;98960.75;;;13.24;55.52
42289;BME280;30230;47.520;19.016;2023-03-23T07:46:39;98958.63;;;13.26;55.65
42289;BME280;30230;47.520;19.016;2023-03-23T07:48:40;98961.78;;;13.23;56.34
42289;BME280;30230;47.520;19.016;2023-03-23T07:50:40;98961.41;;;13.19;54.83
42289;BME280;30230;47.520;19.016;2023-03-23T07:52:41;98961.59;;;13.24;53.71
42289;BME280;30230;47.520;19.016;2023-03-23T07:54:41;98966.69;;;13.33;54.61
42289;BME280;30230;47.520;19.016;2023-03-23T07:56:42;98960.13;;;13.40;55.19
42289;BME280;30230;47.520;19.016;2023-03-23T07:58:43;98967.25;;;13.53;54.72
42289;BME280;30230;47.520;19.016;2023-03-23T08:00:46;98964.59;;;13.65;54.11
42289;BME280;30230;47.520;19.016;2023-03-23T08:02:47;98971.41;;;13.55;54.39
42289;BME280;30230;47.520;19.016;2023-03-23T08:04:48;98961.25;;;13.63;54.49
42289;BME280;30230;47.520;19.016;2023-03-23T08:06:49;98959.34;;;13.81;52.37
42289;BME280;30230;47.520;19.016;2023-03-23T08:08:50;98967.25;;;13.95;52.92
42289;BME280;30230;47.520;19.016;2023-03-23T08:10:51;98958.91;;;14.08;52.02
42289;BME280;30230;47.520;19.016;2023-03-23T08:12:53;98962.31;;;14.15;52.28
42289;BME280;30230;47.520;19.016;2023-03-23T08:14:55;98965.09;;;14.27;50.85
42289;BME280;30230;47.520;19.016;2023-03-23T08:16:55;98962.69;;;14.30;51.25
42289;BME280;30230;47.520;19.016;2023-03-23T08:18:56;98968.38;;;14.41;51.14
42289;BME280;30230;47.520;19.016;2023-03-23T08:20:57;98970.78;;;14.61;49.14
42289;BME280;30230;47.520;19.016;2023-03-23T08:22:58;98972.09;;;14.70;50.01
42289;BME280;30230;47.520;19.016;2023-03-23T08:24:59;98980.22;;;14.81;50.03
42289;BME280;30230;47.520;19.016;2023-03-23T08:27:01;98984.00;;;14.80;48.96
42289;BME280;30230;47.520;19.016;2023-03-23T08:29:01;98979.69;;;15.08;49.53
42289;BME280;30230;47.520;19.016;2023-03-23T08:31:11;98973.97;;;15.33;49.74
42289;BME280;30230;47.520;19.016;2023-03-23T08:33:12;98984.34;;;15.48;48.78
42289;BME280;30230;47.520;19.016;2023-03-23T08:35:14;98976.69;;;15.73;45.91
42289;BME280;30230;47.520;19.016;2023-03-23T08:37:15;98975.31;;;15.87;46.37
42289;BME280;30230;47.520;19.016;2023-03-23T08:39:17;98972.84;;;16.03;45.56
42289;BME280;30230;47.520;19.016;2023-03-23T08:41:18;98968.63;;;15.95;43.07
42289;BME280;30230;47.520;19.016;2023-03-23T08:43:18;98966.31;;;16.37;45.13
42289;BME280;30230;47.520;19.016;2023-03-23T08:45:23;98975.06;;;16.56;44.23
42289;BME280;30230;47.520;19.016;2023-03-23T08:47:24;98966.31;;;16.54;43.44
42289;BME280;30230;47.520;19.016;2023-03-23T08:49:25;98961.09;;;16.53;43.59
42289;BME280;30230;47.520;19.016;2023-03-23T08:51:26;98972.09;;;16.58;43.85
42289;BME280;30230;47.520;19.016;2023-03-23T08:53:26;98973.88;;;16.69;41.96
42289;BME280;30230;47.520;19.016;2023-03-23T08:55:30;98971.41;;;16.67;42.38
42289;BME280;30230;47.520;19.016;2023-03-23T08:57:31;98973.75;;;16.76;43.60
42289;BME280;30230;47.520;19.016;2023-03-23T08:59:31;98962.91;;;16.81;41.74
42289;BME280;30230;47.520;19.016;2023-03-23T09:01:32;98963.94;;;16.97;41.36
42289;BME280;30230;47.520;19.016;2023-03-23T09:03:34;98973.34;;;17.06;41.42
42289;BME280;30230;47.520;19.016;2023-03-23T09:05:37;98967.97;;;17.11;42.43
42289;BME280;30230;47.520;19.016;2023-03-23T09:07:48;98951.13;;;17.19;39.51
42289;BME280;30230;47.520;19.016;2023-03-23T09:09:49;98962.50;;;17.33;39.76
42289;BME280;30230;47.520;19.016;2023-03-23T09:11:49;98961.78;;;17.42;39.27
42289;BME280;30230;47.520;19.016;2023-03-23T09:13:50;98960.56;;;17.55;39.96
42289;BME280;30230;47.520;19.016;2023-03-23T09:15:51;98963.34;;;17.60;40.29
42289;BME280;30230;47.520;19.016;2023-03-23T09:17:54;98957.16;;;17.43;40.51
42289;BME280;30230;47.520;19.016;2023-03-23T09:19:56;98962.19;;;17.56;39.40
42289;BME280;30230;47.520;19.016;2023-03-23T09:21:56;98964.47;;;17.37;39.59
42289;BME280;30230;47.520;19.016;2023-03-23T09:23:57;98959.44;;;17.29;39.40
42289;BME280;30230;47.520;19.016;2023-03-23T09:26:02;98959.06;;;17.21;39.04
42289;BME280;30230;47.520;19.016;2023-03-23T09:28:03;98958.06;;;17.27;39.37
42289;BME280;30230;47.520;19.016;2023-03-23T09:30:09;98957.28;;;17.31;40.02
42289;BME280;30230;47.520;19.016;2023-03-23T09:32:10;98956.69;;;17.51;39.75
42289;BME280;30230;47.520;19.016;2023-03-23T09:34:14;98958.50;;;17.67;39.76
42289;BME280;30230;47.520;19.016;2023-03-23T09:36:18;98949.22;;;17.90;39.32
42289;BME280;30230;47.520;19.016;2023-03-23T09:38:21;98953.56;;;18.23;38.68
42289;BME280;30230;47.520;19.016;2023-03-23T09:40:29;98959.34;;;18.27;38.40
42289;BME280;30230;47.520;19.016;2023-03-23T09:45:59;98950.09;;;18.33;37.88
42289;BME280;30230;47.520;19.016;2023-03-23T09:50:16;98948.69;;;18.63;37.75
42289;BME280;30230;47.520;19.016;2023-03-23T09:52:18;98944.84;;;18.64;37.35
42289;BME280;30230;47.520;19.016;2023-03-23T09:54:38;98955.28;;;18.67;38.03
42289;BME280;30230;47.520;19.016;2023-03-23T09:56:39;98943.28;;;18.68;37.63
42289;BME280;30230;47.520;19.016;2023-03-23T09:58:52;98945.63;;;18.59;37.74
42289;BME280;30230;47.520;19.016;2023-03-23T10:01:16;98948.84;;;18.46;37.63
42289;BME280;30230;47.520;19.016;2023-03-23T10:03:21;98951.91;;;18.55;37.56
42289;BME280;30230;47.520;19.016;2023-03-23T10:05:35;98950.25;;;18.54;37.84
42289;BME280;30230;47.520;19.016;2023-03-23T10:07:35;98945.69;;;18.27;38.13
42289;BME280;30230;47.520;19.016;2023-03-23T10:09:36;98919.41;;;18.21;39.31
42289;BME280;30230;47.520;19.016;2023-03-23T10:11:44;98941.97;;;18.43;38.58
42289;BME280;30230;47.520;19.016;2023-03-23T10:13:58;98938.06;;;18.34;39.16
42289;BME280;30230;47.520;19.016;2023-03-23T10:16:06;98916.47;;;18.33;39.44
42289;BME280;30230;47.520;19.016;2023-03-23T10:18:15;98926.34;;;18.39;39.68
42289;BME280;30230;47.520;19.016;2023-03-23T10:25:25;98915.06;;;18.25;40.11
42289;BME280;30230;47.520;19.016;2023-03-23T10:27:37;98913.75;;;18.33;39.70
42289;BME280;30230;47.520;19.016;2023-03-23T10:29:43;98906.28;;;18.23;39.69
42289;BME280;30230;47.520;19.016;2023-03-23T10:31:52;98909.59;;;18.25;39.50
42289;BME280;30230;47.520;19.016;2023-03-23T10:33:57;98913.91;;;18.16;39.58
42289;BME280;30230;47.520;19.016;2023-03-23T10:36:24;98913.22;;;18.04;40.59
42289;BME280;30230;47.520;19.016;2023-03-23T10:38:36;98909.34;;;17.94;39.77
42289;BME280;30230;47.520;19.016;2023-03-23T10:40:52;98913.09;;;17.83;40.77
42289;BME280;30230;47.520;19.016;2023-03-23T10:42:54;98901.53;;;17.76;41.02
42289;BME280;30230;47.520;19.016;2023-03-23T10:44:56;98896.25;;;17.69;41.05
42289;BME280;30230;47.520;19.016;2023-03-23T10:47:07;98903.09;;;17.72;41.47
42289;BME280;30230;47.520;19.016;2023-03-23T10:49:11;98910.13;;;17.63;41.29
42289;BME280;30230;47.520;19.016;2023-03-23T10:51:13;98901.41;;;17.66;42.11
42289;BME280;30230;47.520;19.016;2023-03-23T10:53:20;98907.19;;;17.69;41.28
42289;BME280;30230;47.520;19.016;2023-03-23T10:55:23;98906.47;;;17.79;41.81
42289;BME280;30230;47.520;19.016;2023-03-23T10:57:29;98902.41;;;17.82;42.08
42289;BME280;30230;47.520;19.016;2023-03-23T10:59:30;98893.06;;;17.78;42.10
42289;BME280;30230;47.520;19.016;2023-03-23T11:01:34;98904.94;;;17.93;41.04
42289;BME280;30230;47.520;19.016;2023-03-23T11:03:43;98899.47;;;17.93;41.26
42289;BME280;30230;47.520;19.016;2023-03-23T11:05:59;98898.78;;;18.08;40.64
42289;BME280;30230;47.520;19.016;2023-03-23T11:08:01;98903.63;;;17.96;41.30
42289;BME280;30230;47.520;19.016;2023-03-23T11:10:16;98896.31;;;18.07;40.14
42289;BME280;30230;47.520;19.016;2023-03-23T11:12:19;98894.69;;;18.06;40.85